sensor_id;sensor_type;location;lat;lon;timestamp;P1;durP1;ratioP1;P2;durP2;ratioP2
25649;SDS011;13505;45.196;5.696;2022-12-26T05:01:52;25.30;;;13.68;;
25649;SDS011;13505;45.196;5.696;2022-12-26T05:07:01;24.50;;;13.68;;
25649;SDS011;13505;45.196;5.696;2022-12-26T05:12:11;20.42;;;11.93;;
25649;SDS011;13505;45.196;5.696;2022-12-26T05:17:02;23.85;;;13.05;;
25649;SDS011;13505;45.196;5.696;2022-12-26T05:22:12;19.10;;;11.57;;
25649;SDS011;13505;45.196;5.696;2022-12-26T05:27:21;19.80;;;11.85;;
25649;SDS011;13505;45.196;5.696;2022-12-26T05:32:31;20.98;;;12.90;;
25649;SDS011;13505;45.196;5.696;2022-12-26T05:37:40;24.75;;;14.05;;
25649;SDS011;13505;45.196;5.696;2022-12-26T05:42:30;25.80;;;13.57;;
25649;SDS011;13505;45.196;5.696;2022-12-26T05:47:21;22.45;;;12.70;;
25649;SDS011;13505;45.196;5.696;2022-12-26T05:52:11;23.80;;;13.00;;
25649;SDS011;13505;45.196;5.696;2022-12-26T05:57:02;26.30;;;15.63;;
25649;SDS011;13505;45.196;5.696;2022-12-26T06:01:52;26.02;;;15.07;;
25649;SDS011;13505;45.196;5.696;2022-12-26T06:06:43;27.17;;;15.40;;
25649;SDS011;13505;45.196;5.696;2022-12-26T06:11:33;27.02;;;15.30;;
25649;SDS011;13505;45.196;5.696;2022-12-26T06:16:23;24.98;;;13.73;;
25649;SDS011;13505;45.196;5.696;2022-12-26T06:21:17;23.48;;;14.15;;
25649;SDS011;13505;45.196;5.696;2022-12-26T06:26:09;26.15;;;14.65;;
25649;SDS011;13505;45.196;5.696;2022-12-26T06:31:02;24.30;;;14.13;;
25649;SDS011;13505;45.196;5.696;2022-12-26T06:35:54;26.08;;;14.35;;
25649;SDS011;13505;45.196;5.696;2022-12-26T06:40:44;24.40;;;13.77;;
25649;SDS011;13505;45.196;5.696;2022-12-26T06:45:35;31.73;;;16.38;;
25649;SDS011;13505;45.196;5.696;2022-12-26T06:50:26;28.90;;;17.27;;
25649;SDS011;13505;45.196;5.696;2022-12-26T06:55:16;28.55;;;16.30;;
25649;SDS011;13505;45.196;5.696;2022-12-26T07:00:07;28.17;;;15.55;;
25649;SDS011;13505;45.196;5.696;2022-12-26T07:04:58;22.90;;;13.90;;
25649;SDS011;13505;45.196;5.696;2022-12-26T07:09:48;19.10;;;11.23;;
25649;SDS011;13505;45.196;5.696;2022-12-26T07:14:38;20.70;;;11.63;;
25649;SDS011;13505;45.196;5.696;2022-12-26T07:19:29;19.27;;;10.80;;
25649;SDS011;13505;45.196;5.696;2022-12-26T07:24:20;22.88;;;11.85;;
25649;SDS011;13505;45.196;5.696;2022-12-26T07:29:12;19.58;;;10.93;;
25649;SDS011;13505;45.196;5.696;2022-12-26T07:34:02;19.42;;;10.45;;
25649;SDS011;13505;45.196;5.696;2022-12-26T07:38:53;20.08;;;11.13;;
25649;SDS011;13505;45.196;5.696;2022-12-26T07:43:43;18.30;;;10.55;;
25649;SDS011;13505;45.196;5.696;2022-12-26T07:48:33;18.52;;;11.13;;
25649;SDS011;13505;45.196;5.696;2022-12-26T07:53:24;21.23;;;12.68;;
25649;SDS011;13505;45.196;5.696;2022-12-26T07:58:14;17.77;;;11.90;;
25649;SDS011;13505;45.196;5.696;2022-12-26T08:03:04;19.73;;;11.77;;
25649;SDS011;13505;45.196;5.696;2022-12-26T08:07:55;20.13;;;11.23;;
25649;SDS011;13505;45.196;5.696;2022-12-26T08:12:45;17.05;;;11.00;;
25649;SDS011;13505;45.196;5.696;2022-12-26T08:17:36;17.23;;;10.27;;
25649;SDS011;13505;45.196;5.696;2022-12-26T08:22:26;15.63;;;9.40;;
25649;SDS011;13505;45.196;5.696;2022-12-26T08:27:16;15.05;;;9.00;;
25649;SDS011;13505;45.196;5.696;2022-12-26T08:32:07;17.67;;;9.15;;
25649;SDS011;13505;45.196;5.696;2022-12-26T08:36:57;19.52;;;10.50;;
25649;SDS011;13505;45.196;5.696;2022-12-26T08:41:47;23.33;;;12.93;;
25649;SDS011;13505;45.196;5.696;2022-12-26T08:46:38;22.60;;;13.60;;
25649;SDS011;13505;45.196;5.696;2022-12-26T08:51:28;24.70;;;13.32;;
25649;SDS011;13505;45.196;5.696;2022-12-26T08:56:19;28.35;;;15.82;;
25649;SDS011;13505;45.196;5.696;2022-12-26T09:01:17;21.83;;;13.32;;
25649;SDS011;13505;45.196;5.696;2022-12-26T09:06:10;22.50;;;13.10;;
25649;SDS011;13505;45.196;5.696;2022-12-26T09:11:03;23.15;;;13.73;;
25649;SDS011;13505;45.196;5.696;2022-12-26T09:16:05;18.77;;;12.55;;
25649;SDS011;13505;45.196;5.696;2022-12-26T09:20:58;21.27;;;11.82;;
25649;SDS011;13505;45.196;5.696;2022-12-26T09:25:49;25.55;;;15.02;;
25649;SDS011;13505;45.196;5.696;2022-12-26T09:30:40;49.05;;;24.02;;
25649;SDS011;13505;45.196;5.696;2022-12-26T09:35:30;21.45;;;12.13;;
25649;SDS011;13505;45.196;5.696;2022-12-26T09:40:22;18.40;;;11.30;;
25649;SDS011;13505;45.196;5.696;2022-12-26T09:45:17;16.45;;;10.75;;
25649;SDS011;13505;45.196;5.696;2022-12-26T09:50:17;18.20;;;11.60;;
25649;SDS011;13505;45.196;5.696;2022-12-26T10:00:19;19.73;;;10.95;;
25649;SDS011;13505;45.196;5.696;2022-12-26T10:05:12;16.80;;;9.63;;
25649;SDS011;13505;45.196;5.696;2022-12-26T10:10:07;13.85;;;9.35;;
25649;SDS011;13505;45.196;5.696;2022-12-26T10:20:16;15.48;;;10.38;;
25649;SDS011;13505;45.196;5.696;2022-12-26T10:25:20;25.83;;;13.88;;
25649;SDS011;13505;45.196;5.696;2022-12-26T10:30:20;17.70;;;11.75;;
25649;SDS011;13505;45.196;5.696;2022-12-26T10:45:01;39.65;;;22.08;;
25649;SDS011;13505;45.196;5.696;2022-12-26T10:50:19;22.75;;;14.57;;
25649;SDS011;13505;45.196;5.696;2022-12-26T10:55:12;22.73;;;13.10;;
25649;SDS011;13505;45.196;5.696;2022-12-26T11:00:12;19.80;;;13.20;;
25649;SDS011;13505;45.196;5.696;2022-12-26T11:05:11;19.50;;;12.20;;
25649;SDS011;13505;45.196;5.696;2022-12-26T11:10:04;21.52;;;13.65;;
25649;SDS011;13505;45.196;5.696;2022-12-26T11:15:04;21.85;;;13.90;;
25649;SDS011;13505;45.196;5.696;2022-12-26T11:35:14;21.15;;;12.85;;
25649;SDS011;13505;45.196;5.696;2022-12-26T11:40:14;24.88;;;14.80;;
25649;SDS011;13505;45.196;5.696;2022-12-26T11:45:09;23.58;;;14.73;;
25649;SDS011;13505;45.196;5.696;2022-12-26T11:50:05;19.15;;;11.80;;
25649;SDS011;13505;45.196;5.696;2022-12-26T12:00:16;24.15;;;15.02;;
25649;SDS011;13505;45.196;5.696;2022-12-26T12:05:15;25.65;;;14.82;;
25649;SDS011;13505;45.196;5.696;2022-12-26T12:15:28;18.83;;;11.82;;
25649;SDS011;13505;45.196;5.696;2022-12-26T12:20:35;17.42;;;11.27;;
25649;SDS011;13505;45.196;5.696;2022-12-26T12:57:24;18.63;;;12.02;;
25649;SDS011;13505;45.196;5.696;2022-12-26T13:02:30;19.13;;;11.50;;
25649;SDS011;13505;45.196;5.696;2022-12-26T13:07:31;21.30;;;11.67;;
25649;SDS011;13505;45.196;5.696;2022-12-26T13:12:30;19.92;;;11.75;;
25649;SDS011;13505;45.196;5.696;2022-12-26T13:22:31;21.00;;;11.80;;
25649;SDS011;13505;45.196;5.696;2022-12-26T13:27:45;18.05;;;11.13;;
25649;SDS011;13505;45.196;5.696;2022-12-26T13:32:37;17.17;;;10.75;;
25649;SDS011;13505;45.196;5.696;2022-12-26T13:42:29;20.05;;;11.57;;
25649;SDS011;13505;45.196;5.696;2022-12-26T13:47:51;20.45;;;12.52;;
25649;SDS011;13505;45.196;5.696;2022-12-26T13:52:42;19.88;;;12.25;;
25649;SDS011;13505;45.196;5.696;2022-12-26T13:57:39;20.23;;;12.23;;
25649;SDS011;13505;45.196;5.696;2022-12-26T14:13:30;20.52;;;12.73;;
25649;SDS011;13505;45.196;5.696;2022-12-26T14:18:38;25.52;;;15.10;;
25649;SDS011;13505;45.196;5.696;2022-12-26T14:49:23;19.58;;;12.10;;
25649;SDS011;13505;45.196;5.696;2022-12-26T15:20:01;22.10;;;12.88;;
25649;SDS011;13505;45.196;5.696;2022-12-26T15:35:34;22.58;;;14.65;;
25649;SDS011;13505;45.196;5.696;2022-12-26T15:40:44;24.27;;;14.17;;
25649;SDS011;13505;45.196;5.696;2022-12-26T15:45:46;27.15;;;15.35;;
25649;SDS011;13505;45.196;5.696;2022-12-26T15:51:01;29.52;;;15.77;;
25649;SDS011;13505;45.196;5.696;2022-12-26T16:01:08;36.63;;;21.55;;
25649;SDS011;13505;45.196;5.696;2022-12-26T16:06:06;38.03;;;20.75;;
25649;SDS011;13505;45.196;5.696;2022-12-26T16:11:21;37.15;;;20.45;;
25649;SDS011;13505;45.196;5.696;2022-12-26T16:16:21;34.85;;;21.15;;
25649;SDS011;13505;45.196;5.696;2022-12-26T16:21:24;35.37;;;19.73;;
25649;SDS011;13505;45.196;5.696;2022-12-26T16:26:40;31.08;;;17.58;;
25649;SDS011;13505;45.196;5.696;2022-12-26T16:31:33;29.20;;;16.90;;
25649;SDS011;13505;45.196;5.696;2022-12-26T16:36:27;23.48;;;15.30;;
25649;SDS011;13505;45.196;5.696;2022-12-26T16:41:26;26.75;;;15.20;;
25649;SDS011;13505;45.196;5.696;2022-12-26T16:46:18;36.85;;;16.08;;
25649;SDS011;13505;45.196;5.696;2022-12-26T16:56:32;42.30;;;22.33;;
25649;SDS011;13505;45.196;5.696;2022-12-26T17:01:23;23.52;;;14.05;;
25649;SDS011;13505;45.196;5.696;2022-12-26T17:06:18;33.17;;;16.38;;
25649;SDS011;13505;45.196;5.696;2022-12-26T17:11:15;35.17;;;16.45;;
25649;SDS011;13505;45.196;5.696;2022-12-26T17:16:07;27.92;;;15.35;;
25649;SDS011;13505;45.196;5.696;2022-12-26T17:26:17;29.33;;;16.73;;
25649;SDS011;13505;45.196;5.696;2022-12-26T17:36:29;24.33;;;15.07;;
25649;SDS011;13505;45.196;5.696;2022-12-26T17:41:21;26.88;;;15.85;;
25649;SDS011;13505;45.196;5.696;2022-12-26T17:46:13;27.48;;;14.88;;
25649;SDS011;13505;45.196;5.696;2022-12-26T17:51:06;26.77;;;15.20;;
25649;SDS011;13505;45.196;5.696;2022-12-26T17:56:02;34.03;;;18.15;;
25649;SDS011;13505;45.196;5.696;2022-12-26T18:00:59;35.40;;;18.75;;
25649;SDS011;13505;45.196;5.696;2022-12-26T18:05:50;30.08;;;17.40;;
25649;SDS011;13505;45.196;5.696;2022-12-26T18:10:42;28.30;;;16.95;;
25649;SDS011;13505;45.196;5.696;2022-12-26T18:15:32;27.42;;;14.02;;
25649;SDS011;13505;45.196;5.696;2022-12-26T18:20:24;40.35;;;18.92;;
25649;SDS011;13505;45.196;5.696;2022-12-26T18:25:16;47.30;;;19.98;;
25649;SDS011;13505;45.196;5.696;2022-12-26T18:30:14;26.02;;;14.07;;
25649;SDS011;13505;45.196;5.696;2022-12-26T18:35:06;24.92;;;12.43;;
25649;SDS011;13505;45.196;5.696;2022-12-26T18:39:57;24.38;;;13.43;;
25649;SDS011;13505;45.196;5.696;2022-12-26T18:44:47;23.75;;;11.77;;
25649;SDS011;13505;45.196;5.696;2022-12-26T18:49:38;24.05;;;14.25;;
25649;SDS011;13505;45.196;5.696;2022-12-26T18:54:28;26.58;;;14.93;;
25649;SDS011;13505;45.196;5.696;2022-12-26T18:59:19;25.35;;;15.07;;
25649;SDS011;13505;45.196;5.696;2022-12-26T19:04:11;28.40;;;16.38;;
25649;SDS011;13505;45.196;5.696;2022-12-26T19:09:04;30.27;;;16.75;;
25649;SDS011;13505;45.196;5.696;2022-12-26T19:13:54;34.78;;;17.73;;
25649;SDS011;13505;45.196;5.696;2022-12-26T19:18:44;28.98;;;18.17;;
25649;SDS011;13505;45.196;5.696;2022-12-26T19:23:35;30.20;;;17.67;;
25649;SDS011;13505;45.196;5.696;2022-12-26T19:28:25;30.40;;;18.35;;
25649;SDS011;13505;45.196;5.696;2022-12-26T19:33:15;34.85;;;18.70;;
25649;SDS011;13505;45.196;5.696;2022-12-26T19:38:06;36.20;;;22.25;;
25649;SDS011;13505;45.196;5.696;2022-12-26T19:42:56;33.78;;;20.67;;
25649;SDS011;13505;45.196;5.696;2022-12-26T19:47:47;30.27;;;19.00;;
25649;SDS011;13505;45.196;5.696;2022-12-26T19:52:37;36.70;;;18.65;;
25649;SDS011;13505;45.196;5.696;2022-12-26T19:57:28;28.05;;;16.13;;
25649;SDS011;13505;45.196;5.696;2022-12-26T20:02:19;29.67;;;16.48;;
25649;SDS011;13505;45.196;5.696;2022-12-26T20:07:10;29.38;;;16.27;;
25649;SDS011;13505;45.196;5.696;2022-12-26T20:12:00;33.33;;;17.10;;
25649;SDS011;13505;45.196;5.696;2022-12-26T20:16:55;32.75;;;19.35;;
25649;SDS011;13505;45.196;5.696;2022-12-26T20:21:46;27.70;;;17.15;;
25649;SDS011;13505;45.196;5.696;2022-12-26T20:26:37;28.50;;;15.57;;
25649;SDS011;13505;45.196;5.696;2022-12-26T20:31:30;25.13;;;13.88;;
25649;SDS011;13505;45.196;5.696;2022-12-26T20:36:23;24.50;;;14.45;;
25649;SDS011;13505;45.196;5.696;2022-12-26T20:41:15;21.92;;;13.65;;
25649;SDS011;13505;45.196;5.696;2022-12-26T20:46:10;25.52;;;15.02;;
25649;SDS011;13505;45.196;5.696;2022-12-26T20:51:05;23.27;;;14.13;;
25649;SDS011;13505;45.196;5.696;2022-12-26T20:55:57;24.95;;;13.40;;
25649;SDS011;13505;45.196;5.696;2022-12-26T21:00:53;20.38;;;13.23;;
25649;SDS011;13505;45.196;5.696;2022-12-26T21:10:37;18.70;;;12.05;;
25649;SDS011;13505;45.196;5.696;2022-12-26T21:15:28;20.20;;;13.13;;
25649;SDS011;13505;45.196;5.696;2022-12-26T21:20:18;25.13;;;14.95;;
25649;SDS011;13505;45.196;5.696;2022-12-26T21:25:08;21.98;;;13.55;;
25649;SDS011;13505;45.196;5.696;2022-12-26T21:29:59;22.25;;;12.55;;
25649;SDS011;13505;45.196;5.696;2022-12-26T21:34:50;17.38;;;11.63;;
25649;SDS011;13505;45.196;5.696;2022-12-26T21:39:40;19.13;;;11.88;;
25649;SDS011;13505;45.196;5.696;2022-12-26T21:44:32;19.88;;;11.85;;
25649;SDS011;13505;45.196;5.696;2022-12-26T21:49:22;21.98;;;12.52;;
25649;SDS011;13505;45.196;5.696;2022-12-26T21:54:13;17.08;;;10.98;;
25649;SDS011;13505;45.196;5.696;2022-12-26T21:59:22;17.08;;;11.05;;
25649;SDS011;13505;45.196;5.696;2022-12-26T22:04:30;19.65;;;11.55;;
25649;SDS011;13505;45.196;5.696;2022-12-26T22:09:21;17.97;;;9.90;;
25649;SDS011;13505;45.196;5.696;2022-12-26T22:14:11;18.10;;;9.52;;
25649;SDS011;13505;45.196;5.696;2022-12-26T22:19:02;14.30;;;9.15;;
25649;SDS011;13505;45.196;5.696;2022-12-26T22:23:53;16.95;;;9.35;;
25649;SDS011;13505;45.196;5.696;2022-12-26T22:28:44;17.75;;;10.60;;
25649;SDS011;13505;45.196;5.696;2022-12-26T22:33:34;17.95;;;10.52;;
25649;SDS011;13505;45.196;5.696;2022-12-26T22:38:25;16.95;;;10.63;;
25649;SDS011;13505;45.196;5.696;2022-12-26T22:43:16;17.30;;;9.88;;
25649;SDS011;13505;45.196;5.696;2022-12-26T22:48:07;15.10;;;10.23;;
25649;SDS011;13505;45.196;5.696;2022-12-26T22:52:57;19.83;;;10.73;;
25649;SDS011;13505;45.196;5.696;2022-12-26T22:57:48;18.55;;;11.68;;
